createdAt,value
2022-11-10T00:00:42.316Z,11.20
2022-11-10T00:03:12.396Z,11.20
2022-11-10T00:05:40.814Z,11.20
2022-11-10T00:08:13.737Z,11.10
2022-11-10T00:10:56.270Z,11.00
2022-11-10T00:13:26.623Z,10.90
2022-11-10T00:16:13.278Z,10.80
2022-11-10T00:18:41.460Z,10.80
2022-11-10T00:21:12.251Z,10.70
2022-11-10T00:23:42.088Z,10.70
2022-11-10T00:26:16.482Z,10.70
2022-11-10T00:28:45.115Z,10.70
2022-11-10T00:31:14.138Z,10.70
2022-11-10T00:33:44.671Z,10.60
2022-11-10T00:36:12.954Z,10.70
2022-11-10T00:38:42.412Z,10.70
2022-11-10T00:41:10.524Z,10.70
2022-11-10T00:43:38.689Z,10.70
2022-11-10T00:46:07.073Z,10.70
2022-11-10T00:48:35.344Z,10.60
2022-11-10T00:51:03.745Z,10.60
2022-11-10T00:53:31.831Z,10.50
2022-11-10T00:56:01.314Z,10.50
2022-11-10T00:58:29.468Z,10.50
2022-11-10T01:01:02.939Z,10.40
2022-11-10T01:03:31.161Z,10.30
2022-11-10T01:05:59.266Z,10.30
2022-11-10T01:08:27.387Z,10.30
2022-11-10T01:11:04.521Z,10.30
2022-11-10T01:13:33.477Z,10.40
2022-11-10T01:16:05.611Z,10.40
2022-11-10T01:18:34.244Z,10.40
2022-11-10T01:21:02.920Z,10.40
2022-11-10T01:23:31.175Z,10.30
2022-11-10T01:25:59.967Z,10.40
2022-11-10T01:28:30.073Z,10.40
2022-11-10T01:30:59.104Z,10.40
2022-11-10T01:33:27.573Z,10.40
2022-11-10T01:35:55.860Z,10.40
2022-11-10T01:38:24.060Z,10.50
2022-11-10T01:40:52.189Z,10.50
2022-11-10T01:43:20.759Z,10.50
2022-11-10T01:45:55.059Z,10.50
2022-11-10T01:48:34.071Z,10.50
2022-11-10T01:51:07.945Z,10.40
2022-11-10T01:53:43.122Z,10.40
2022-11-10T01:56:15.014Z,10.40
2022-11-10T01:58:50.769Z,10.40
2022-11-10T02:01:20.674Z,10.40
2022-11-10T02:03:52.624Z,10.40
2022-11-10T02:06:26.339Z,10.40
2022-11-10T02:08:56.784Z,10.40
2022-11-10T02:11:25.963Z,10.30
2022-11-10T02:13:55.020Z,10.30
2022-11-10T02:16:25.155Z,10.30
2022-11-10T02:18:53.914Z,10.30
2022-11-10T02:21:23.770Z,10.40
2022-11-10T02:23:54.268Z,10.40
2022-11-10T02:26:31.028Z,10.40
2022-11-10T02:28:59.201Z,10.50
2022-11-10T02:31:27.273Z,10.50
2022-11-10T02:33:55.451Z,10.50
2022-11-10T02:36:24.952Z,10.50
2022-11-10T02:38:53.101Z,10.40
2022-11-10T02:41:21.247Z,10.40
2022-11-10T02:43:49.882Z,10.40
2022-11-10T02:46:18.049Z,10.40
2022-11-10T02:48:46.174Z,10.40
2022-11-10T02:51:14.442Z,10.40
2022-11-10T02:53:43.895Z,10.30
2022-11-10T02:56:12.084Z,10.30
2022-11-10T02:58:40.244Z,10.30
2022-11-10T03:01:08.674Z,10.30
2022-11-10T03:03:37.099Z,10.30
2022-11-10T03:06:05.522Z,10.30
2022-11-10T03:08:33.619Z,10.30
2022-11-10T03:11:03.190Z,10.30
2022-11-10T03:13:45.303Z,10.30
2022-11-10T03:16:20.087Z,10.30
2022-11-10T03:18:48.192Z,10.30
2022-11-10T03:21:16.442Z,10.10
2022-11-10T03:23:44.530Z,10.10
2022-11-10T03:26:14.312Z,10.10
2022-11-10T03:28:42.404Z,10.10
2022-11-10T03:31:10.589Z,10.10
2022-11-10T03:33:38.679Z,10.10
2022-11-10T03:36:07.233Z,10.10
2022-11-10T03:38:35.336Z,10.10
2022-11-10T03:41:18.678Z,10.10
2022-11-10T03:43:49.824Z,10.00
2022-11-10T03:46:18.600Z,10.00
2022-11-10T03:48:53.190Z,9.90
2022-11-10T03:51:22.563Z,9.80
2022-11-10T03:53:50.699Z,9.80
2022-11-10T03:56:19.094Z,9.80
2022-11-10T03:58:48.609Z,9.70
2022-11-10T04:01:17.055Z,9.70
2022-11-10T04:03:50.150Z,9.60
2022-11-10T04:06:37.774Z,9.60
2022-11-10T04:09:06.747Z,9.70
2022-11-10T04:11:51.665Z,9.70
2022-11-10T04:14:38.403Z,9.70
2022-11-10T04:17:06.567Z,9.70
2022-11-10T04:19:34.636Z,9.70
2022-11-10T04:22:02.797Z,9.70
2022-11-10T04:24:30.925Z,9.80
2022-11-10T04:26:59.053Z,9.80
2022-11-10T04:29:28.562Z,9.80
2022-11-10T04:31:56.690Z,9.80
2022-11-10T04:34:24.763Z,9.80
2022-11-10T04:36:52.905Z,9.70
2022-11-10T04:39:21.027Z,9.60
2022-11-10T04:41:49.111Z,9.60
2022-11-10T04:44:17.177Z,9.50
2022-11-10T04:46:46.679Z,9.50
2022-11-10T04:49:14.791Z,9.50
2022-11-10T04:51:42.951Z,9.40
2022-11-10T04:54:12.927Z,9.40
2022-11-10T04:56:41.255Z,9.40
2022-11-10T04:59:09.530Z,9.30
2022-11-10T05:01:37.621Z,9.30
2022-11-10T05:04:07.275Z,9.30
2022-11-10T05:06:35.492Z,9.30
2022-11-10T05:09:03.701Z,9.30
2022-11-10T05:11:31.863Z,9.30
2022-11-10T05:13:59.951Z,9.30
2022-11-10T05:16:28.131Z,9.30
2022-11-10T05:18:58.163Z,9.40
2022-11-10T05:21:27.763Z,9.40
2022-11-10T05:23:55.846Z,9.30
2022-11-10T05:26:23.983Z,9.30
2022-11-10T05:28:52.111Z,9.30
2022-11-10T05:31:20.208Z,9.30
2022-11-10T05:33:48.290Z,9.20
2022-11-10T05:36:16.468Z,9.20
2022-11-10T05:38:45.916Z,9.20
2022-11-10T05:41:14.004Z,9.10
2022-11-10T05:43:42.160Z,9.10
2022-11-10T05:46:10.341Z,9.10
2022-11-10T05:48:38.446Z,9.00
2022-11-10T05:51:07.070Z,9.00
2022-11-10T05:53:35.220Z,9.00
2022-11-10T05:56:04.841Z,9.00
2022-11-10T05:58:33.005Z,9.10
2022-11-10T06:01:01.125Z,9.10
2022-11-10T06:03:29.301Z,9.20
2022-11-10T06:05:58.039Z,9.30
2022-11-10T06:08:26.155Z,9.30
2022-11-10T06:10:54.575Z,9.30
2022-11-10T06:13:24.323Z,9.40
2022-11-10T06:15:52.715Z,9.50
2022-11-10T06:18:20.846Z,9.50
2022-11-10T06:20:49.129Z,9.50
2022-11-10T06:23:17.270Z,9.60
2022-11-10T06:25:45.576Z,9.70
2022-11-10T06:28:14.751Z,9.70
2022-11-10T06:30:44.333Z,9.70
2022-11-10T06:33:12.496Z,9.60
2022-11-10T06:35:40.649Z,9.60
2022-11-10T06:38:12.543Z,9.50
2022-11-10T06:40:40.658Z,9.50
2022-11-10T06:43:08.807Z,9.40
2022-11-10T06:45:36.924Z,9.30
2022-11-10T06:48:09.238Z,9.30
2022-11-10T06:50:37.298Z,9.20
2022-11-10T06:53:05.541Z,9.20
2022-11-10T06:55:33.921Z,9.20
2022-11-10T06:58:02.348Z,9.10
2022-11-10T07:00:31.306Z,9.20
2022-11-10T07:03:03.969Z,9.10
2022-11-10T07:05:35.948Z,9.10
2022-11-10T07:08:05.915Z,9.10
2022-11-10T07:10:35.330Z,9.10
2022-11-10T07:13:05.638Z,9.20
2022-11-10T07:15:34.534Z,9.30
2022-11-10T07:18:03.622Z,9.30
2022-11-10T07:20:33.564Z,9.30
2022-11-10T07:23:04.056Z,9.40
2022-11-10T07:25:35.483Z,9.40
2022-11-10T07:28:06.640Z,9.50
2022-11-10T07:30:36.350Z,9.60
2022-11-10T07:33:08.194Z,9.70
2022-11-10T07:35:38.670Z,9.70
2022-11-10T07:38:10.132Z,9.80
2022-11-10T07:40:39.602Z,9.90
2022-11-10T07:43:07.797Z,10.10
2022-11-10T07:45:35.945Z,10.10
2022-11-10T07:48:07.431Z,10.20
2022-11-10T07:50:37.107Z,10.30
2022-11-10T07:53:07.809Z,10.40
2022-11-10T07:55:38.062Z,10.50
2022-11-10T07:58:07.242Z,10.50
2022-11-10T08:00:36.690Z,10.60
2022-11-10T08:03:07.041Z,10.60
2022-11-10T08:05:37.144Z,10.70
2022-11-10T08:08:06.658Z,10.90
2022-11-10T08:10:35.970Z,10.80
2022-11-10T08:13:06.960Z,10.90
2022-11-10T08:15:36.003Z,11.00
2022-11-10T08:18:06.992Z,11.10
2022-11-10T08:20:36.992Z,11.20
2022-11-10T08:23:07.671Z,11.20
2022-11-10T08:25:38.239Z,11.30
2022-11-10T08:28:09.044Z,11.50
2022-11-10T08:30:39.151Z,11.50
2022-11-10T08:33:09.918Z,11.70
2022-11-10T08:35:42.297Z,11.70
2022-11-10T08:38:12.349Z,11.80
2022-11-10T08:40:41.533Z,12.10
2022-11-10T08:43:11.726Z,12.20
2022-11-10T08:45:42.228Z,12.20
2022-11-10T08:48:13.863Z,12.00
2022-11-10T08:50:44.177Z,11.90
2022-11-10T08:53:15.459Z,11.70
2022-11-10T08:55:45.426Z,11.60
2022-11-10T08:58:16.530Z,11.50
2022-11-10T09:00:44.965Z,11.40
2022-11-10T09:03:16.928Z,11.50
2022-11-10T09:05:47.982Z,11.70
2022-11-10T09:08:17.129Z,11.80
2022-11-10T09:10:49.835Z,12.10
2022-11-10T09:13:26.091Z,12.30
2022-11-10T09:15:57.894Z,12.30
2022-11-10T09:18:26.053Z,12.20
2022-11-10T09:20:55.490Z,12.10
2022-11-10T09:23:25.215Z,12.10
2022-11-10T09:25:57.254Z,12.10
2022-11-10T09:28:26.318Z,12.30
2022-11-10T09:30:54.465Z,12.30
2022-11-10T09:33:22.872Z,12.40
2022-11-10T09:35:51.600Z,12.50
2022-11-10T09:38:21.501Z,12.50
2022-11-10T09:41:00.942Z,12.60
2022-11-10T09:43:38.551Z,12.60
2022-11-10T09:46:17.212Z,12.70
2022-11-10T09:48:53.067Z,12.90
2022-11-10T09:51:25.963Z,13.10
2022-11-10T09:53:59.772Z,13.30
2022-11-10T09:56:34.039Z,13.60
2022-11-10T09:59:07.811Z,13.70
2022-11-10T10:01:48.238Z,13.70
2022-11-10T10:04:51.528Z,13.50
2022-11-10T10:07:30.626Z,13.20
2022-11-10T10:10:17.125Z,13.10
2022-11-10T10:13:08.222Z,13.00
2022-11-10T10:15:50.645Z,13.10
2022-11-10T10:18:32.919Z,13.10
2022-11-10T10:21:22.275Z,13.10
2022-11-10T10:24:09.468Z,13.20
2022-11-10T10:26:51.600Z,13.20
2022-11-10T10:29:24.694Z,13.30
2022-11-10T10:31:54.137Z,13.40
2022-11-10T10:34:28.381Z,13.50
2022-11-10T10:36:56.575Z,13.60
2022-11-10T10:39:34.835Z,13.80
2022-11-10T10:42:19.622Z,14.00
2022-11-10T10:45:20.717Z,14.10
2022-11-10T10:47:51.717Z,14.00
2022-11-10T10:50:42.894Z,13.90
2022-11-10T10:53:16.684Z,13.90
2022-11-10T10:55:59.735Z,13.90
2022-11-10T10:58:31.656Z,13.80
2022-11-10T11:01:06.361Z,13.70
2022-11-10T11:03:44.613Z,13.70
2022-11-10T11:06:27.116Z,13.70
2022-11-10T11:09:00.012Z,13.80
2022-11-10T11:11:32.168Z,13.90
2022-11-10T11:14:22.144Z,13.80
2022-11-10T11:16:53.488Z,14.10
2022-11-10T11:19:24.679Z,14.60
2022-11-10T11:22:24.486Z,14.80
2022-11-10T11:25:06.376Z,15.00
2022-11-10T11:27:52.005Z,15.20
2022-11-10T11:30:24.504Z,15.10
2022-11-10T11:33:15.511Z,14.90
2022-11-10T11:35:51.080Z,14.70
2022-11-10T11:38:32.465Z,14.60
2022-11-10T11:41:20.385Z,14.60
2022-11-10T11:44:16.674Z,14.50
2022-11-10T11:47:03.409Z,14.50
2022-11-10T11:50:14.442Z,14.60
2022-11-10T11:52:58.704Z,14.70
2022-11-10T11:55:48.405Z,14.60
2022-11-10T11:58:37.612Z,14.70
2022-11-10T12:01:27.755Z,14.70
2022-11-10T12:04:37.117Z,14.60
2022-11-10T12:07:24.769Z,14.70
2022-11-10T12:10:07.817Z,14.70
2022-11-10T12:13:12.216Z,14.60
2022-11-10T12:15:54.346Z,14.50
2022-11-10T12:18:32.324Z,14.50
2022-11-10T12:21:23.071Z,14.40
2022-11-10T12:24:21.344Z,14.40
2022-11-10T12:26:59.814Z,14.30
2022-11-10T12:29:38.553Z,14.30
2022-11-10T12:32:18.395Z,14.30
2022-11-10T12:34:54.792Z,14.40
2022-11-10T12:37:33.190Z,14.40
2022-11-10T12:40:15.445Z,14.40
2022-11-10T12:42:48.062Z,14.50
2022-11-10T12:45:24.692Z,14.40
2022-11-10T12:47:54.443Z,14.40
2022-11-10T12:50:49.964Z,14.40
2022-11-10T12:53:25.140Z,14.40
2022-11-10T12:56:00.713Z,14.30
2022-11-10T12:58:30.802Z,14.40
2022-11-10T13:01:04.621Z,14.50
2022-11-10T13:03:37.146Z,14.70
2022-11-10T13:06:08.275Z,14.60
2022-11-10T13:08:49.674Z,14.60
2022-11-10T13:11:37.339Z,14.50
2022-11-10T13:14:21.936Z,14.20
2022-11-10T13:16:54.263Z,14.10
2022-11-10T13:19:52.209Z,14.20
2022-11-10T13:22:40.809Z,14.30
2022-11-10T13:25:55.151Z,14.40
2022-11-10T13:29:20.943Z,14.50
2022-11-10T13:31:54.947Z,14.50
2022-11-10T13:34:35.066Z,14.60
2022-11-10T13:37:05.280Z,14.40
2022-11-10T13:39:34.924Z,14.40
2022-11-10T13:42:23.367Z,14.20
2022-11-10T13:44:53.861Z,14.10
2022-11-10T13:47:52.759Z,14.10
2022-11-10T13:50:35.312Z,14.10
2022-11-10T13:53:28.489Z,14.00
2022-11-10T13:56:17.028Z,13.90
2022-11-10T13:58:47.287Z,13.80
2022-11-10T14:01:28.207Z,13.70
2022-11-10T14:04:02.519Z,13.70
2022-11-10T14:06:44.430Z,13.70
2022-11-10T14:09:28.991Z,13.70
2022-11-10T14:12:05.907Z,13.60
2022-11-10T14:14:50.224Z,13.50
2022-11-10T14:17:24.816Z,13.50
2022-11-10T14:19:52.977Z,13.60
2022-11-10T14:22:29.076Z,13.50
2022-11-10T14:25:06.554Z,13.50
2022-11-10T14:27:39.344Z,13.50
2022-11-10T14:30:24.835Z,13.30
2022-11-10T14:33:00.103Z,13.30
2022-11-10T14:35:31.790Z,13.30
2022-11-10T14:38:01.595Z,13.20
2022-11-10T14:40:31.052Z,13.20
2022-11-10T14:43:01.180Z,13.10
2022-11-10T14:45:31.025Z,13.10
2022-11-10T14:48:01.337Z,13.00
2022-11-10T14:50:32.931Z,13.00
2022-11-10T14:53:12.980Z,12.90
2022-11-10T14:55:50.638Z,12.90
2022-11-10T14:58:27.374Z,12.90
2022-11-10T15:00:57.008Z,12.70
2022-11-10T15:03:36.939Z,12.60
2022-11-10T15:06:10.248Z,12.60
2022-11-10T15:08:40.091Z,12.50
2022-11-10T15:11:28.864Z,12.40
2022-11-10T15:13:57.021Z,12.30
2022-11-10T15:16:29.849Z,12.30
2022-11-10T15:19:21.932Z,12.30
2022-11-10T15:21:50.778Z,12.40
2022-11-10T15:24:20.177Z,12.30
2022-11-10T15:26:48.493Z,12.30
2022-11-10T15:29:25.122Z,12.20
2022-11-10T15:31:54.737Z,12.10
2022-11-10T15:34:41.459Z,12.00
2022-11-10T15:37:27.539Z,11.90
2022-11-10T15:40:34.743Z,11.90
2022-11-10T15:43:15.625Z,11.80
2022-11-10T15:45:47.454Z,11.70
2022-11-10T15:48:19.254Z,11.60
2022-11-10T15:50:51.956Z,11.60
2022-11-10T15:53:31.171Z,11.60
2022-11-10T15:55:59.310Z,11.40
2022-11-10T15:58:29.389Z,11.40
2022-11-10T16:00:57.534Z,11.20
2022-11-10T16:03:27.747Z,11.10
2022-11-10T16:05:55.917Z,11.00
2022-11-10T16:08:24.835Z,11.00
2022-11-10T16:10:57.231Z,10.90
2022-11-10T16:13:28.558Z,10.80
2022-11-10T16:15:58.548Z,10.80
2022-11-10T16:18:30.881Z,10.70
2022-11-10T16:20:59.158Z,10.70
2022-11-10T16:23:28.515Z,10.70
2022-11-10T16:25:58.890Z,10.60
2022-11-10T16:28:29.115Z,10.60
2022-11-10T16:30:57.385Z,10.50
2022-11-10T16:33:29.107Z,10.50
2022-11-10T16:35:57.846Z,10.40
2022-11-10T16:38:29.725Z,10.40
2022-11-10T16:41:00.617Z,10.40
2022-11-10T16:43:30.786Z,10.40
2022-11-10T16:46:03.147Z,10.30
2022-11-10T16:48:37.547Z,10.30
2022-11-10T16:51:06.123Z,10.40
2022-11-10T16:53:34.318Z,10.40
2022-11-10T16:56:02.425Z,10.40
2022-11-10T16:58:30.549Z,10.30
2022-11-10T17:01:02.435Z,10.30
2022-11-10T17:03:37.942Z,10.20
2022-11-10T17:06:06.903Z,10.20
2022-11-10T17:08:41.698Z,10.20
2022-11-10T17:11:11.043Z,10.20
2022-11-10T17:13:39.383Z,10.20
2022-11-10T17:16:22.828Z,10.30
2022-11-10T17:18:52.772Z,10.20
2022-11-10T17:21:24.459Z,10.20
2022-11-10T17:23:54.661Z,10.20
2022-11-10T17:26:23.152Z,10.10
2022-11-10T17:28:51.266Z,10.10
2022-11-10T17:31:19.411Z,10.00
2022-11-10T17:33:47.541Z,10.10
2022-11-10T17:36:22.088Z,10.10
2022-11-10T17:38:51.808Z,10.20
2022-11-10T17:41:21.789Z,10.20
2022-11-10T17:43:49.920Z,10.20
2022-11-10T17:46:18.132Z,10.20
2022-11-10T17:48:47.614Z,10.20
2022-11-10T17:51:21.852Z,10.20
2022-11-10T17:53:50.647Z,10.20
2022-11-10T17:56:19.007Z,10.20
2022-11-10T17:58:47.095Z,10.20
2022-11-10T18:01:22.060Z,10.20
2022-11-10T18:03:51.191Z,10.20
2022-11-10T18:06:22.167Z,10.20
2022-11-10T18:08:50.257Z,10.20
2022-11-10T18:11:20.150Z,10.10
2022-11-10T18:13:48.365Z,10.10
2022-11-10T18:16:16.577Z,10.10
2022-11-10T18:18:44.685Z,10.00
2022-11-10T18:21:13.082Z,9.90
2022-11-10T18:23:44.501Z,9.90
2022-11-10T18:26:12.715Z,9.90
2022-11-10T18:28:42.075Z,9.80
2022-11-10T18:31:12.503Z,9.80
2022-11-10T18:33:41.103Z,9.70
2022-11-10T18:36:10.069Z,9.70
2022-11-10T18:38:38.224Z,9.70
2022-11-10T18:41:26.013Z,9.70
2022-11-10T18:43:54.269Z,9.70
2022-11-10T18:46:22.380Z,9.80
2022-11-10T18:48:50.588Z,9.80
2022-11-10T18:51:18.833Z,9.80
2022-11-10T18:53:46.961Z,9.70
2022-11-10T18:56:16.470Z,9.80
2022-11-10T18:58:44.639Z,9.70
2022-11-10T19:01:13.067Z,9.70
2022-11-10T19:03:42.680Z,9.60
2022-11-10T19:06:12.375Z,9.60
2022-11-10T19:08:41.093Z,9.50
2022-11-10T19:11:11.923Z,9.50
2022-11-10T19:13:41.768Z,9.50
2022-11-10T19:16:13.067Z,9.40
2022-11-10T19:18:43.193Z,9.40
2022-11-10T19:21:15.037Z,9.40
2022-11-10T19:23:44.066Z,9.40
2022-11-10T19:26:20.904Z,9.30
2022-11-10T19:28:53.473Z,9.30
2022-11-10T19:31:22.807Z,9.20
2022-11-10T19:33:54.052Z,9.20
2022-11-10T19:36:24.521Z,9.20
2022-11-10T19:38:54.460Z,9.10
2022-11-10T19:41:26.599Z,9.10
2022-11-10T19:43:57.372Z,9.10
2022-11-10T19:46:27.959Z,9.10
2022-11-10T19:48:57.853Z,9.00
2022-11-10T19:51:28.492Z,9.00
2022-11-10T19:54:01.280Z,9.00
2022-11-10T19:56:32.330Z,8.90
2022-11-10T19:59:02.089Z,8.90
2022-11-10T20:01:32.423Z,8.90
2022-11-10T20:04:01.623Z,8.90
2022-11-10T20:06:29.788Z,8.90
2022-11-10T20:08:57.952Z,8.90
2022-11-10T20:11:27.722Z,9.00
2022-11-10T20:13:59.037Z,9.00
2022-11-10T20:16:28.676Z,8.90
2022-11-10T20:18:57.078Z,8.90
2022-11-10T20:21:25.191Z,8.90
2022-11-10T20:23:54.789Z,8.90
2022-11-10T20:26:24.772Z,8.90
2022-11-10T20:28:52.911Z,8.80
2022-11-10T20:31:26.189Z,8.80
2022-11-10T20:33:57.938Z,8.90
2022-11-10T20:36:29.188Z,8.90
2022-11-10T20:39:00.393Z,9.00
2022-11-10T20:41:32.809Z,8.90
2022-11-10T20:44:00.945Z,8.90
2022-11-10T20:49:18.628Z,8.90
2022-11-10T20:51:46.760Z,8.80
2022-11-10T20:54:17.242Z,8.80
2022-11-10T20:56:45.388Z,8.80
2022-11-10T20:59:13.519Z,8.70
2022-11-10T21:01:41.776Z,8.70
2022-11-10T21:04:10.845Z,8.70
2022-11-10T21:06:40.952Z,8.70
2022-11-10T21:09:09.362Z,8.70
2022-11-10T21:11:55.114Z,8.70
2022-11-10T21:14:23.936Z,8.60
2022-11-10T21:16:52.162Z,8.70
2022-11-10T21:19:20.296Z,8.70
2022-11-10T21:21:51.054Z,8.60
2022-11-10T21:24:19.169Z,8.60
2022-11-10T21:26:47.323Z,8.60
2022-11-10T21:29:15.456Z,8.50
2022-11-10T21:31:44.287Z,8.60
2022-11-10T21:34:12.599Z,8.60
2022-11-10T21:36:41.445Z,8.50
2022-11-10T21:39:11.163Z,8.40
2022-11-10T21:41:39.305Z,8.40
2022-11-10T21:44:07.449Z,8.40
2022-11-10T21:46:35.593Z,8.30
2022-11-10T21:49:07.618Z,8.30
2022-11-10T21:51:36.443Z,8.20
2022-11-10T21:54:04.711Z,8.20
2022-11-10T21:56:34.203Z,8.10
2022-11-10T21:59:02.358Z,8.10
2022-11-10T22:01:30.564Z,8.00
2022-11-10T22:03:58.700Z,8.10
2022-11-10T22:06:48.539Z,8.10
2022-11-10T22:09:36.791Z,8.20
2022-11-10T22:12:25.449Z,8.20
2022-11-10T22:15:11.163Z,8.40
2022-11-10T22:17:57.046Z,8.40
2022-11-10T22:20:25.210Z,8.30
2022-11-10T22:22:53.328Z,8.30
2022-11-10T22:25:21.523Z,8.30
2022-11-10T22:27:50.981Z,8.30
2022-11-10T22:30:19.359Z,8.30
2022-11-10T22:32:47.503Z,8.30
2022-11-10T22:35:35.736Z,8.30
2022-11-10T22:38:08.046Z,8.20
2022-11-10T22:40:55.334Z,8.20
2022-11-10T22:43:42.280Z,8.20
2022-11-10T22:46:10.428Z,8.20
2022-11-10T22:48:38.639Z,8.20
2022-11-10T22:51:07.089Z,8.10
2022-11-10T22:53:38.301Z,8.10
2022-11-10T22:56:06.865Z,8.10
2022-11-10T22:58:36.348Z,8.10
2022-11-10T23:01:06.207Z,8.10
2022-11-10T23:03:35.144Z,8.10
2022-11-10T23:06:03.686Z,8.00
2022-11-10T23:08:32.491Z,8.00
2022-11-10T23:11:02.810Z,8.00
2022-11-10T23:13:31.372Z,7.90
2022-11-10T23:16:04.736Z,7.90
2022-11-10T23:18:33.100Z,7.90
2022-11-10T23:21:03.452Z,8.00
2022-11-10T23:23:34.337Z,8.10
2022-11-10T23:26:06.264Z,8.10
2022-11-10T23:28:36.387Z,8.20
2022-11-10T23:31:08.970Z,8.30
2022-11-10T23:33:38.823Z,8.30
2022-11-10T23:36:10.248Z,8.30
2022-11-10T23:38:39.466Z,8.40
2022-11-10T23:41:13.146Z,8.40
2022-11-10T23:43:41.296Z,8.40
2022-11-10T23:46:11.449Z,8.40
2022-11-10T23:48:41.251Z,8.40
2022-11-10T23:51:12.787Z,8.30
2022-11-10T23:53:41.718Z,8.30
2022-11-10T23:56:14.080Z,8.30
2022-11-10T23:58:42.409Z,8.20
